createdAt,value
2023-03-15T00:00:56.277Z,5.09
2023-03-15T00:03:27.292Z,4.98
2023-03-15T00:05:54.073Z,5.02
2023-03-15T00:08:22.086Z,5.03
2023-03-15T00:10:49.112Z,4.99
2023-03-15T00:13:17.537Z,5.01
2023-03-15T00:15:50.067Z,4.99
2023-03-15T00:18:18.817Z,4.97
2023-03-15T00:20:47.280Z,4.96
2023-03-15T00:23:14.980Z,4.94
2023-03-15T00:25:45.626Z,4.94
2023-03-15T00:28:12.978Z,4.93
2023-03-15T00:30:40.154Z,4.95
2023-03-15T00:33:08.457Z,4.91
2023-03-15T00:35:39.559Z,4.95
2023-03-15T00:38:06.693Z,4.94
2023-03-15T00:40:34.000Z,4.90
2023-03-15T00:43:00.968Z,4.92
2023-03-15T00:45:27.898Z,4.94
2023-03-15T00:47:55.755Z,4.89
2023-03-15T00:50:24.521Z,4.85
2023-03-15T00:52:51.640Z,4.83
2023-03-15T00:55:19.873Z,4.80
2023-03-15T00:57:48.555Z,4.81
2023-03-15T01:00:25.148Z,4.83
2023-03-15T01:02:53.854Z,4.81
2023-03-15T01:05:22.206Z,4.74
2023-03-15T01:07:49.677Z,4.77
2023-03-15T01:10:17.487Z,4.72
2023-03-15T01:12:45.791Z,4.65
2023-03-15T01:15:14.778Z,4.60
2023-03-15T01:17:43.215Z,4.49
2023-03-15T01:20:14.509Z,4.44
2023-03-15T01:22:43.138Z,4.36
2023-03-15T01:25:10.574Z,4.32
2023-03-15T01:27:37.909Z,4.25
2023-03-15T01:30:06.889Z,4.22
2023-03-15T01:32:34.528Z,4.17
2023-03-15T01:35:01.869Z,4.10
2023-03-15T01:37:28.812Z,4.03
2023-03-15T01:39:55.976Z,4.01
2023-03-15T01:42:22.917Z,3.95
2023-03-15T01:44:53.590Z,3.90
2023-03-15T01:47:20.841Z,3.87
2023-03-15T01:49:54.048Z,3.85
2023-03-15T01:52:27.993Z,3.84
2023-03-15T01:55:13.310Z,3.81
2023-03-15T01:57:56.452Z,3.73
2023-03-15T02:00:26.517Z,3.69
2023-03-15T02:03:09.620Z,3.67
2023-03-15T02:05:46.513Z,3.67
2023-03-15T02:08:20.510Z,3.58
2023-03-15T02:10:53.602Z,3.55
2023-03-15T02:13:23.744Z,3.51
2023-03-15T02:15:53.756Z,3.44
2023-03-15T02:18:36.403Z,3.38
2023-03-15T02:21:16.436Z,3.34
2023-03-15T02:23:45.679Z,3.27
2023-03-15T02:26:50.726Z,3.22
2023-03-15T02:29:19.106Z,3.15
2023-03-15T02:31:49.255Z,3.12
2023-03-15T02:34:16.136Z,3.04
2023-03-15T02:36:42.976Z,3.02
2023-03-15T02:39:18.869Z,3.02
2023-03-15T02:41:50.747Z,3.00
2023-03-15T02:44:32.335Z,2.97
2023-03-15T02:47:11.338Z,2.93
2023-03-15T02:49:43.188Z,2.96
2023-03-15T02:52:10.796Z,2.93
2023-03-15T02:54:43.410Z,2.89
2023-03-15T02:57:11.931Z,2.89
2023-03-15T02:59:39.254Z,2.82
2023-03-15T03:02:06.807Z,2.78
2023-03-15T03:04:34.894Z,2.75
2023-03-15T03:07:02.101Z,2.71
2023-03-15T03:09:37.449Z,2.71
2023-03-15T03:12:04.841Z,2.76
2023-03-15T03:14:33.477Z,2.75
2023-03-15T03:17:01.754Z,2.78
2023-03-15T03:19:29.090Z,2.77
2023-03-15T03:21:57.645Z,2.72
2023-03-15T03:24:26.004Z,2.68
2023-03-15T03:26:58.296Z,2.65
2023-03-15T03:29:28.356Z,2.63
2023-03-15T03:31:57.541Z,2.62
2023-03-15T03:34:24.431Z,2.61
2023-03-15T03:36:51.317Z,2.58
2023-03-15T03:39:28.183Z,2.61
2023-03-15T03:41:56.887Z,2.56
2023-03-15T03:44:23.894Z,2.54
2023-03-15T03:46:50.987Z,2.53
2023-03-15T03:49:17.862Z,2.50
2023-03-15T03:51:45.394Z,2.47
2023-03-15T03:54:12.331Z,2.42
2023-03-15T03:56:39.905Z,2.38
2023-03-15T03:59:07.014Z,2.32
2023-03-15T04:01:49.840Z,2.24
2023-03-15T04:04:17.547Z,2.22
2023-03-15T04:06:48.299Z,2.11
2023-03-15T04:09:19.018Z,2.06
2023-03-15T04:11:48.406Z,2.01
2023-03-15T04:14:16.804Z,2.00
2023-03-15T04:16:46.067Z,1.94
2023-03-15T04:19:16.449Z,1.87
2023-03-15T04:21:47.580Z,1.88
2023-03-15T04:24:23.589Z,1.84
2023-03-15T04:27:01.636Z,1.81
2023-03-15T04:30:05.755Z,1.79
2023-03-15T04:32:59.279Z,1.80
2023-03-15T04:35:45.965Z,1.77
2023-03-15T04:38:42.052Z,1.75
2023-03-15T04:41:11.428Z,1.76
2023-03-15T04:44:00.834Z,1.72
2023-03-15T04:46:59.960Z,1.61
2023-03-15T04:49:38.069Z,2.00
2023-03-15T04:52:25.455Z,1.56
2023-03-15T04:55:07.084Z,1.45
2023-03-15T04:57:52.944Z,1.33
2023-03-15T05:00:38.873Z,1.32
2023-03-15T05:03:19.236Z,1.31
2023-03-15T05:05:57.035Z,1.32
2023-03-15T05:08:38.994Z,1.30
2023-03-15T05:11:20.747Z,1.32
2023-03-15T05:13:50.593Z,1.34
2023-03-15T05:16:36.220Z,1.33
2023-03-15T05:19:15.612Z,1.34
2023-03-15T05:22:05.393Z,1.29
2023-03-15T05:24:51.803Z,1.29
2023-03-15T05:27:44.957Z,1.29
2023-03-15T05:30:32.530Z,1.29
2023-03-15T05:33:01.467Z,1.26
2023-03-15T05:35:56.651Z,1.24
2023-03-15T05:38:45.742Z,1.23
2023-03-15T05:41:24.032Z,1.27
2023-03-15T05:44:10.971Z,1.30
2023-03-15T05:47:06.600Z,1.32
2023-03-15T05:49:58.123Z,1.38
2023-03-15T05:52:44.225Z,1.46
2023-03-15T05:55:33.265Z,1.47
2023-03-15T05:58:14.592Z,1.53
2023-03-15T06:01:01.912Z,1.57
2023-03-15T06:03:51.356Z,1.62
2023-03-15T06:06:23.483Z,1.65
2023-03-15T06:08:50.602Z,1.66
2023-03-15T06:11:17.471Z,1.67
2023-03-15T06:13:45.618Z,1.68
2023-03-15T06:16:21.114Z,1.68
2023-03-15T06:18:54.819Z,1.69
2023-03-15T06:21:21.775Z,1.69
2023-03-15T06:23:49.778Z,1.73
2023-03-15T06:26:19.542Z,1.77
2023-03-15T06:28:48.671Z,1.78
2023-03-15T06:31:15.971Z,1.75
2023-03-15T06:33:50.853Z,1.72
2023-03-15T06:36:19.327Z,1.69
2023-03-15T06:38:46.213Z,1.70
2023-03-15T06:41:16.626Z,1.69
2023-03-15T06:43:44.546Z,1.74
2023-03-15T06:46:13.306Z,1.74
2023-03-15T06:48:41.704Z,1.71
2023-03-15T06:51:14.627Z,1.75
2023-03-15T06:53:41.705Z,1.78
2023-03-15T06:56:08.852Z,1.83
2023-03-15T06:58:35.751Z,1.84
2023-03-15T07:01:02.941Z,1.87
2023-03-15T07:03:29.837Z,1.88
2023-03-15T07:05:56.838Z,1.89
2023-03-15T07:08:25.381Z,1.91
2023-03-15T07:10:52.570Z,1.94
2023-03-15T07:13:20.720Z,1.94
2023-03-15T07:15:52.594Z,2.00
2023-03-15T07:18:19.733Z,2.04
2023-03-15T07:20:47.188Z,2.08
2023-03-15T07:23:15.228Z,2.15
2023-03-15T07:25:54.492Z,2.14
2023-03-15T07:28:23.491Z,2.19
2023-03-15T07:31:00.569Z,2.19
2023-03-15T07:33:30.304Z,2.20
2023-03-15T07:36:00.499Z,2.21
2023-03-15T07:38:31.493Z,2.20
2023-03-15T07:41:01.803Z,2.17
2023-03-15T07:43:29.597Z,2.12
2023-03-15T07:46:12.215Z,2.11
2023-03-15T07:48:40.176Z,2.10
2023-03-15T07:51:07.195Z,2.10
2023-03-15T07:53:34.045Z,2.08
2023-03-15T07:56:02.508Z,2.09
2023-03-15T07:58:29.360Z,2.08
2023-03-15T08:00:58.862Z,2.08
2023-03-15T08:03:27.708Z,2.11
2023-03-15T08:05:57.259Z,2.15
2023-03-15T08:08:24.362Z,2.21
2023-03-15T08:10:54.771Z,2.28
2023-03-15T08:13:21.723Z,2.32
2023-03-15T08:15:51.147Z,2.33
2023-03-15T08:18:19.735Z,2.37
2023-03-15T08:20:47.127Z,2.39
2023-03-15T08:23:16.696Z,2.38
2023-03-15T08:25:46.236Z,2.48
2023-03-15T08:28:14.505Z,2.50
2023-03-15T08:30:41.544Z,2.52
2023-03-15T08:33:08.967Z,2.55
2023-03-15T08:35:36.268Z,2.62
2023-03-15T08:38:03.379Z,2.68
2023-03-15T08:40:30.677Z,2.66
2023-03-15T08:42:58.226Z,2.74
2023-03-15T08:45:26.150Z,2.78
2023-03-15T08:47:58.417Z,2.72
2023-03-15T08:50:27.217Z,2.70
2023-03-15T08:52:54.565Z,2.72
2023-03-15T08:55:21.797Z,2.75
2023-03-15T08:57:48.724Z,2.76
2023-03-15T09:00:18.111Z,2.82
2023-03-15T09:02:45.179Z,2.85
2023-03-15T09:05:12.319Z,2.89
2023-03-15T09:07:44.873Z,2.90
2023-03-15T09:10:15.551Z,2.86
2023-03-15T09:12:50.485Z,2.89
2023-03-15T09:15:17.528Z,2.87
2023-03-15T09:17:45.927Z,2.84
2023-03-15T09:20:19.260Z,2.87
2023-03-15T09:22:52.668Z,2.84
2023-03-15T09:25:20.618Z,2.80
2023-03-15T09:27:47.747Z,2.81
2023-03-15T09:30:17.008Z,2.81
2023-03-15T09:32:44.333Z,2.80
2023-03-15T09:35:15.039Z,2.77
2023-03-15T09:37:42.649Z,2.76
2023-03-15T09:40:28.208Z,2.79
2023-03-15T09:43:07.197Z,2.80
2023-03-15T09:46:00.829Z,2.79
2023-03-15T09:48:36.199Z,2.79
2023-03-15T09:51:10.576Z,2.75
2023-03-15T09:53:46.423Z,2.72
2023-03-15T09:56:32.578Z,2.77
2023-03-15T09:59:01.911Z,2.81
2023-03-15T10:01:33.170Z,2.87
2023-03-15T10:04:10.806Z,2.85
2023-03-15T10:06:46.611Z,2.86
2023-03-15T10:09:18.187Z,2.87
2023-03-15T10:11:53.297Z,2.91
2023-03-15T10:14:39.598Z,2.92
2023-03-15T10:17:15.532Z,2.90
2023-03-15T10:20:06.774Z,2.92
2023-03-15T10:22:54.805Z,2.91
2023-03-15T10:25:31.333Z,2.91
2023-03-15T10:28:22.236Z,2.95
2023-03-15T10:30:51.725Z,2.99
2023-03-15T10:33:39.061Z,3.04
2023-03-15T10:36:15.786Z,3.02
2023-03-15T10:38:43.250Z,2.95
2023-03-15T10:41:17.897Z,2.93
2023-03-15T10:44:04.104Z,2.94
2023-03-15T10:46:32.330Z,3.00
2023-03-15T10:49:16.236Z,3.11
2023-03-15T10:51:46.550Z,3.23
2023-03-15T10:54:24.404Z,3.26
2023-03-15T10:57:14.688Z,3.31
2023-03-15T11:00:17.488Z,3.29
2023-03-15T11:02:52.997Z,3.23
2023-03-15T11:05:20.587Z,3.14
2023-03-15T11:07:56.138Z,3.18
2023-03-15T11:10:26.157Z,3.21
2023-03-15T11:13:19.911Z,3.26
2023-03-15T11:16:04.618Z,3.28
2023-03-15T11:18:43.131Z,3.30
2023-03-15T11:21:14.790Z,3.35
2023-03-15T11:23:51.199Z,3.35
2023-03-15T11:26:32.358Z,3.41
2023-03-15T11:29:06.149Z,3.47
2023-03-15T11:31:34.407Z,3.60
2023-03-15T11:34:25.615Z,3.71
2023-03-15T11:37:07.939Z,3.82
2023-03-15T11:40:05.072Z,3.88
2023-03-15T11:42:50.423Z,3.94
2023-03-15T11:45:25.512Z,3.96
2023-03-15T11:48:04.140Z,4.17
2023-03-15T11:50:30.938Z,4.32
2023-03-15T11:53:03.538Z,4.52
2023-03-15T11:55:39.234Z,4.77
2023-03-15T11:58:34.988Z,4.86
2023-03-15T12:01:06.534Z,4.89
2023-03-15T12:03:43.056Z,4.89
2023-03-15T12:06:37.703Z,5.03
2023-03-15T12:09:33.743Z,5.13
2023-03-15T12:12:27.010Z,5.27
2023-03-15T12:15:15.946Z,5.30
2023-03-15T12:17:52.974Z,5.29
2023-03-15T12:21:01.670Z,5.31
2023-03-15T12:23:40.172Z,5.30
2023-03-15T12:26:14.828Z,5.31
2023-03-15T12:29:00.820Z,5.33
2023-03-15T12:32:04.602Z,5.33
2023-03-15T12:34:50.379Z,5.30
2023-03-15T12:37:48.808Z,5.18
2023-03-15T12:40:15.765Z,5.02
2023-03-15T12:42:42.880Z,4.81
2023-03-15T12:45:16.000Z,4.54
2023-03-15T12:47:52.104Z,4.30
2023-03-15T12:50:47.197Z,4.06
2023-03-15T12:53:32.591Z,3.88
2023-03-15T12:56:32.825Z,3.74
2023-03-15T12:59:27.332Z,3.66
2023-03-15T13:01:55.193Z,3.61
2023-03-15T13:04:22.300Z,3.61
2023-03-15T13:07:18.009Z,3.61
2023-03-15T13:09:53.942Z,3.60
2023-03-15T13:12:35.566Z,3.59
2023-03-15T13:15:18.700Z,3.82
2023-03-15T13:18:02.990Z,4.20
2023-03-15T13:21:06.548Z,4.51
2023-03-15T13:23:37.227Z,4.70
2023-03-15T13:26:37.891Z,5.38
2023-03-15T13:29:07.546Z,6.15
2023-03-15T13:31:35.076Z,6.78
2023-03-15T13:34:16.993Z,7.36
2023-03-15T13:36:54.122Z,7.87
2023-03-15T13:39:30.759Z,7.90
2023-03-15T13:42:18.595Z,7.48
2023-03-15T13:44:45.771Z,7.03
2023-03-15T13:47:22.391Z,6.67
2023-03-15T13:49:53.048Z,6.51
2023-03-15T13:52:20.410Z,6.31
2023-03-15T13:54:47.471Z,6.13
2023-03-15T13:57:17.524Z,5.91
2023-03-15T13:59:52.992Z,5.78
2023-03-15T14:02:26.745Z,5.69
2023-03-15T14:04:58.509Z,5.76
2023-03-15T14:07:30.337Z,6.38
2023-03-15T14:10:19.163Z,7.15
2023-03-15T14:12:47.121Z,7.64
2023-03-15T14:15:41.470Z,8.15
2023-03-15T14:18:08.209Z,8.28
2023-03-15T14:20:47.122Z,8.42
2023-03-15T14:23:18.675Z,8.45
2023-03-15T14:25:52.639Z,8.20
2023-03-15T14:28:20.834Z,7.91
2023-03-15T14:30:56.749Z,7.75
2023-03-15T14:33:37.802Z,7.57
2023-03-15T14:36:10.037Z,7.35
2023-03-15T14:38:39.320Z,7.15
2023-03-15T14:41:28.031Z,7.01
2023-03-15T14:43:55.085Z,6.95
2023-03-15T14:46:21.980Z,6.72
2023-03-15T14:48:51.323Z,6.38
2023-03-15T14:51:20.862Z,6.06
2023-03-15T14:53:51.391Z,5.82
2023-03-15T14:56:19.866Z,5.71
2023-03-15T14:58:47.165Z,5.68
2023-03-15T15:01:18.064Z,5.66
2023-03-15T15:04:00.184Z,5.63
2023-03-15T15:06:30.035Z,5.59
2023-03-15T15:08:59.076Z,5.53
2023-03-15T15:11:26.599Z,5.42
2023-03-15T15:13:55.430Z,5.49
2023-03-15T15:16:22.673Z,5.54
2023-03-15T15:18:49.677Z,5.63
2023-03-15T15:21:27.360Z,5.73
2023-03-15T15:23:58.801Z,5.80
2023-03-15T15:26:29.911Z,5.76
2023-03-15T15:28:57.316Z,5.71
2023-03-15T15:31:26.308Z,5.70
2023-03-15T15:33:54.806Z,5.73
2023-03-15T15:36:25.338Z,5.73
2023-03-15T15:38:53.095Z,5.67
2023-03-15T15:41:24.565Z,5.51
2023-03-15T15:43:52.644Z,5.40
2023-03-15T15:46:20.122Z,5.27
2023-03-15T15:48:47.159Z,5.22
2023-03-15T15:51:17.275Z,5.19
2023-03-15T15:53:44.387Z,5.19
2023-03-15T15:56:14.907Z,5.18
2023-03-15T15:58:43.431Z,5.13
2023-03-15T16:01:13.854Z,5.00
2023-03-15T16:03:41.845Z,4.86
2023-03-15T16:06:20.854Z,4.70
2023-03-15T16:08:51.112Z,4.57
2023-03-15T16:11:19.033Z,4.46
2023-03-15T16:13:46.758Z,4.37
2023-03-15T16:16:16.022Z,4.29
2023-03-15T16:18:44.046Z,4.21
2023-03-15T16:21:34.540Z,4.19
2023-03-15T16:24:06.925Z,4.13
2023-03-15T16:26:36.438Z,4.08
2023-03-15T16:29:13.037Z,4.05
2023-03-15T16:31:40.309Z,4.00
2023-03-15T16:34:12.145Z,3.93
2023-03-15T16:36:43.770Z,3.88
2023-03-15T16:39:13.198Z,3.82
2023-03-15T16:41:41.976Z,3.74
2023-03-15T16:44:17.010Z,3.66
2023-03-15T16:46:44.019Z,3.58
2023-03-15T16:49:12.299Z,3.52
2023-03-15T16:51:45.305Z,3.46
2023-03-15T16:54:24.382Z,3.43
2023-03-15T16:57:01.660Z,3.30
2023-03-15T16:59:29.241Z,3.30
2023-03-15T17:01:56.938Z,3.25
2023-03-15T17:04:30.467Z,3.25
2023-03-15T17:06:58.837Z,3.25
2023-03-15T17:09:26.376Z,3.24
2023-03-15T17:11:53.816Z,3.23
2023-03-15T17:14:29.720Z,3.26
2023-03-15T17:16:56.750Z,3.18
2023-03-15T17:19:23.828Z,3.12
2023-03-15T17:21:51.884Z,3.11
2023-03-15T17:24:19.559Z,3.14
2023-03-15T17:26:47.070Z,3.15
2023-03-15T17:29:17.175Z,3.18
2023-03-15T17:31:45.138Z,3.17
2023-03-15T17:34:12.808Z,3.17
2023-03-15T17:36:41.817Z,3.19
2023-03-15T17:39:15.624Z,3.15
2023-03-15T17:41:49.241Z,3.14
2023-03-15T17:44:18.037Z,3.05
2023-03-15T17:46:45.081Z,3.06
2023-03-15T17:49:13.447Z,3.03
2023-03-15T17:51:43.285Z,2.98
2023-03-15T17:54:22.182Z,2.98
2023-03-15T17:56:51.584Z,2.92
2023-03-15T17:59:19.585Z,2.93
2023-03-15T18:01:48.898Z,2.92
2023-03-15T18:04:16.339Z,2.90
2023-03-15T18:06:43.385Z,2.89
2023-03-15T18:09:12.985Z,2.89
2023-03-15T18:11:46.289Z,2.86
2023-03-15T18:14:14.432Z,2.82
2023-03-15T18:16:42.702Z,2.84
2023-03-15T18:19:09.797Z,2.81
2023-03-15T18:21:42.014Z,2.72
2023-03-15T18:24:12.752Z,2.70
2023-03-15T18:26:39.650Z,2.66
2023-03-15T18:29:06.663Z,2.62
2023-03-15T18:31:35.240Z,2.51
2023-03-15T18:34:03.794Z,2.47
2023-03-15T18:36:33.105Z,2.51
2023-03-15T18:39:00.042Z,2.50
2023-03-15T18:41:28.173Z,2.46
2023-03-15T18:43:55.268Z,2.48
2023-03-15T18:46:24.734Z,2.46
2023-03-15T18:48:56.120Z,2.46
2023-03-15T18:51:25.864Z,2.45
2023-03-15T18:53:53.745Z,2.44
2023-03-15T18:56:26.221Z,2.40
2023-03-15T18:58:55.786Z,2.35
2023-03-15T19:01:24.643Z,2.35
2023-03-15T19:03:53.005Z,2.36
2023-03-15T19:06:22.971Z,2.34
2023-03-15T19:08:53.686Z,2.28
2023-03-15T19:11:24.580Z,2.27
2023-03-15T19:13:52.095Z,2.20
2023-03-15T19:16:21.206Z,2.16
2023-03-15T19:18:49.682Z,2.14
2023-03-15T19:21:19.017Z,2.11
2023-03-15T19:23:46.941Z,2.11
2023-03-15T19:26:15.685Z,2.13
2023-03-15T19:28:44.029Z,2.13
2023-03-15T19:31:11.536Z,2.11
2023-03-15T19:33:38.750Z,2.10
2023-03-15T19:36:06.680Z,2.08
2023-03-15T19:38:34.081Z,2.06
2023-03-15T19:41:06.136Z,2.03
2023-03-15T19:43:34.311Z,1.97
2023-03-15T19:46:02.115Z,1.98
2023-03-15T19:48:30.102Z,1.90
2023-03-15T19:50:57.289Z,1.85
2023-03-15T19:53:25.849Z,1.83
2023-03-15T19:55:53.196Z,1.84
2023-03-15T19:58:21.169Z,1.76
2023-03-15T20:00:52.205Z,1.73
2023-03-15T20:03:19.116Z,1.70
2023-03-15T20:05:47.016Z,1.65
2023-03-15T20:08:14.983Z,1.57
2023-03-15T20:10:44.075Z,1.54
2023-03-15T20:13:11.542Z,1.51
2023-03-15T20:15:40.033Z,1.47
2023-03-15T20:18:08.399Z,1.47
2023-03-15T20:20:36.615Z,1.41
2023-03-15T20:23:04.086Z,1.47
2023-03-15T20:25:32.813Z,1.45
2023-03-15T20:28:00.483Z,1.45
2023-03-15T20:30:27.577Z,1.46
2023-03-15T20:32:54.808Z,1.48
2023-03-15T20:35:24.031Z,1.46
2023-03-15T20:37:53.146Z,1.50
2023-03-15T20:40:21.573Z,1.48
2023-03-15T20:42:49.743Z,1.42
2023-03-15T20:45:16.756Z,1.37
2023-03-15T20:47:44.705Z,1.35
2023-03-15T20:50:14.316Z,1.28
2023-03-15T20:52:43.008Z,1.30
2023-03-15T20:55:17.110Z,1.29
2023-03-15T20:57:44.157Z,1.20
2023-03-15T21:00:17.095Z,1.22
2023-03-15T21:02:46.726Z,1.22
2023-03-15T21:05:13.938Z,1.18
2023-03-15T21:07:41.755Z,1.17
2023-03-15T21:10:11.123Z,1.17
2023-03-15T21:12:38.491Z,1.10
2023-03-15T21:15:06.652Z,1.10
2023-03-15T21:17:33.653Z,1.10
2023-03-15T21:20:01.458Z,1.10
2023-03-15T21:22:28.324Z,1.06
2023-03-15T21:24:56.407Z,1.07
2023-03-15T21:27:26.453Z,1.06
2023-03-15T21:29:57.791Z,1.07
2023-03-15T21:32:25.236Z,1.08
2023-03-15T21:34:53.661Z,1.13
2023-03-15T21:37:20.631Z,1.11
2023-03-15T21:39:49.321Z,1.12
2023-03-15T21:42:16.586Z,1.12
2023-03-15T21:44:43.439Z,1.02
2023-03-15T21:47:14.788Z,0.96
2023-03-15T21:49:45.184Z,0.89
2023-03-15T21:52:12.875Z,0.87
2023-03-15T21:54:40.727Z,0.86
2023-03-15T21:57:07.793Z,0.89
2023-03-15T21:59:35.313Z,0.87
2023-03-15T22:02:04.709Z,0.90
2023-03-15T22:04:34.258Z,0.84
2023-03-15T22:07:01.354Z,0.68
2023-03-15T22:09:28.192Z,0.64
2023-03-15T22:11:56.156Z,0.60
2023-03-15T22:14:23.288Z,0.59
2023-03-15T22:16:51.843Z,0.55
2023-03-15T22:19:18.969Z,0.49
2023-03-15T22:21:46.204Z,0.51
2023-03-15T22:24:13.416Z,0.50
2023-03-15T22:26:40.694Z,0.47
2023-03-15T22:29:09.324Z,0.44
2023-03-15T22:31:38.311Z,0.42
2023-03-15T22:34:07.150Z,0.45
2023-03-15T22:36:34.770Z,0.48
2023-03-15T22:39:02.515Z,0.55
2023-03-15T22:41:30.419Z,0.60
2023-03-15T22:43:57.951Z,0.60
2023-03-15T22:46:29.436Z,0.63
2023-03-15T22:48:56.825Z,0.58
2023-03-15T22:51:24.132Z,0.61
2023-03-15T22:53:51.314Z,0.63
2023-03-15T22:56:18.206Z,0.65
2023-03-15T22:58:45.112Z,0.62
2023-03-15T23:01:11.947Z,0.65
2023-03-15T23:03:39.016Z,0.69
2023-03-15T23:06:06.801Z,0.74
2023-03-15T23:08:33.708Z,0.74
2023-03-15T23:11:01.245Z,0.81
2023-03-15T23:13:28.121Z,0.87
2023-03-15T23:15:55.474Z,0.83
2023-03-15T23:18:22.407Z,0.86
2023-03-15T23:20:50.000Z,0.90
2023-03-15T23:23:17.708Z,0.90
2023-03-15T23:25:46.156Z,0.92
2023-03-15T23:28:14.016Z,0.94
2023-03-15T23:30:46.080Z,0.99
2023-03-15T23:33:15.075Z,0.99
2023-03-15T23:35:42.373Z,1.06
2023-03-15T23:38:09.451Z,1.09
2023-03-15T23:40:36.330Z,1.09
2023-03-15T23:43:04.720Z,1.16
2023-03-15T23:45:31.908Z,1.17
2023-03-15T23:47:58.947Z,1.17
2023-03-15T23:50:26.961Z,1.19
2023-03-15T23:52:57.070Z,1.21
2023-03-15T23:55:24.764Z,1.20
2023-03-15T23:57:51.787Z,1.18
